الصفحة الرئيسية
METAR-TAF:

METAR-TAF

مطار :

مطار غران كناريا

كناريا الكبرى, إسبانيا

دائرة عرض: 27-56N, خط طول: 015-23W, ارتفاع: 23 متر

مراقبة الطقس الحالي

تاريخ ووقت الإصدار 30 دقيقة قبل الساعة 06:00UTC
ريح 22 عقدة من الشمال
درجة الحرارة 21°درجة مئوية
الرطوبة 73%
ضغط 1020 hPa
الرؤية 10 كم أو أكثر
غيوم قليلة على ارتفاع 2000 قدم
غيوم مفككة على ارتفاع 3500 قدم

METAR: GCLP 160600Z 36022KT 9999 FEW020 BKN035 21/16 Q1020 NOSIG

زمن: 07:30 (06:30 UTC)

توقعات

تاريخ ووقت الإصدار 4ساعات و 30 دقيقة قبل الساعة 02:00UTC
التوقعات صالحة من16 الساعة 03 UTC إلى 17 الساعة 03 UTC
ريح 21 عقدة من الشمال
الرؤية 10 كم أو أكثر
غيوم قليلة على ارتفاع 2500 قدم
مؤقت
من 16 الساعة 03 UTC إلى 16 الساعة 21 UTC
ريح 21 عقدة من الشمال تتزايد حتى 31 عقدة

TAF: GCLP 160200Z 1603/1703 36021KT 9999 FEW025 TX26/1614Z TN20/1606Z TEMPO 1603/1621 36021G31KT

أرصاد الطقس والتوقعات من أكثر من 4000 مطار (تقارير الطقس للمطار METAR والتنبؤ بالطقس بالمطارTAF).

المحطات المتاحة هي النقط الصفراء والحمراء على الخريطة.

حرك المؤشر فوق النقطة لمعرفة اسم المحطة.

ثم انقر لمعرفة أرصاد وتوقعات الطقس.

لتغيير الخارطة: اضغط على الأزرار الخضراء مع رمز الصليب الأسود للتكبير. على الزر الأخضر مع شرطة للتصغير، أو على الأسهم الخضراء للخرائط المجاورة.


METAR-TAF: